createdAt,value
2019-04-21T00:01:24.340Z,45.96
2019-04-21T00:04:02.551Z,46.01
2019-04-21T00:06:48.064Z,46.46
2019-04-21T00:09:27.800Z,46.15
2019-04-21T00:11:55.362Z,45.95
2019-04-21T00:14:15.373Z,45.97
2019-04-21T00:16:44.352Z,47.49
2019-04-21T00:19:43.006Z,47.34
2019-04-21T00:22:27.294Z,46.70
2019-04-21T00:25:04.363Z,45.31
2019-04-21T00:27:33.743Z,45.37
2019-04-21T00:30:14.134Z,46.60
2019-04-21T00:32:35.673Z,46.95
2019-04-21T00:35:02.543Z,46.03
2019-04-21T00:37:48.084Z,45.89
2019-04-21T00:40:22.723Z,46.56
2019-04-21T00:42:48.425Z,46.39
2019-04-21T00:45:18.169Z,47.03
2019-04-21T00:48:01.074Z,46.78
2019-04-21T00:50:34.464Z,46.71
2019-04-21T00:53:05.455Z,46.47
2019-04-21T00:55:48.547Z,47.17
2019-04-21T00:58:22.426Z,47.75
2019-04-21T01:00:58.979Z,47.47
2019-04-21T01:03:47.406Z,47.95
2019-04-21T01:05:58.979Z,48.17
2019-04-21T01:08:31.160Z,47.62
2019-04-21T01:10:57.018Z,47.54
2019-04-21T01:13:41.598Z,48.54
2019-04-21T01:16:10.170Z,49.31
2019-04-21T01:18:41.333Z,48.79
2019-04-21T01:20:51.430Z,47.56
2019-04-21T01:23:21.731Z,47.79
2019-04-21T01:26:06.812Z,48.17
2019-04-21T01:28:39.849Z,48.90
2019-04-21T01:31:15.468Z,49.90
2019-04-21T01:33:50.772Z,49.97
2019-04-21T01:36:18.144Z,50.29
2019-04-21T01:38:58.677Z,51.30
2019-04-21T01:41:29.278Z,51.07
2019-04-21T01:43:56.965Z,50.44
2019-04-21T01:46:25.930Z,52.95
2019-04-21T01:48:58.098Z,51.42
2019-04-21T01:51:29.573Z,51.72
2019-04-21T01:54:18.516Z,51.90
2019-04-21T01:56:51.994Z,53.42
2019-04-21T01:59:12.874Z,52.64
2019-04-21T02:02:00.450Z,52.76
2019-04-21T02:04:36.630Z,52.95
2019-04-21T02:07:03.254Z,51.93
2019-04-21T02:09:41.991Z,53.85
2019-04-21T02:12:16.641Z,54.43
2019-04-21T02:14:51.524Z,52.20
2019-04-21T02:17:18.587Z,53.25
2019-04-21T02:19:45.178Z,54.33
2019-04-21T02:22:19.278Z,54.77
2019-04-21T02:24:59.854Z,55.26
2019-04-21T02:27:33.068Z,56.14
2019-04-21T02:30:05.645Z,56.12
2019-04-21T02:32:44.217Z,56.75
2019-04-21T02:35:20.778Z,56.71
2019-04-21T02:40:25.716Z,57.43
2019-04-21T02:43:03.137Z,56.90
2019-04-21T02:45:22.897Z,56.38
2019-04-21T02:50:34.005Z,57.31
2019-04-21T02:53:01.321Z,57.20
2019-04-21T02:55:30.414Z,57.35
2019-04-21T02:58:18.612Z,57.47
2019-04-21T03:01:07.009Z,57.13
2019-04-21T03:03:52.955Z,57.11
2019-04-21T03:06:47.288Z,57.91
2019-04-21T03:09:20.431Z,58.57
2019-04-21T03:11:53.414Z,59.47
2019-04-21T03:14:31.506Z,60.12
2019-04-21T03:16:44.292Z,60.20
2019-04-21T03:19:28.944Z,60.47
2019-04-21T03:21:57.311Z,60.23
2019-04-21T03:24:31.194Z,60.59
2019-04-21T03:27:10.389Z,60.57
2019-04-21T03:32:36.749Z,60.47
2019-04-21T03:37:16.749Z,62.72
2019-04-21T03:39:48.513Z,63.25
2019-04-21T03:44:45.562Z,62.99
2019-04-21T03:47:22.872Z,62.92
2019-04-21T03:49:56.041Z,62.77
2019-04-21T04:03:44.243Z,61.68
2019-04-21T04:09:03.917Z,62.02
2019-04-21T04:14:06.346Z,61.77
2019-04-21T04:16:37.223Z,61.76
2019-04-21T04:18:59.138Z,61.75
2019-04-21T04:21:41.934Z,61.75
2019-04-21T04:24:07.197Z,61.61
2019-04-21T04:26:40.964Z,61.87
2019-04-21T04:29:16.284Z,61.97
2019-04-21T04:31:43.922Z,62.24
2019-04-21T04:42:35.060Z,62.56
2019-04-21T04:45:08.362Z,62.66
2019-04-21T04:47:30.474Z,62.67
2019-04-21T04:49:59.473Z,62.58
2019-04-21T04:52:48.523Z,62.32
2019-04-21T04:55:08.554Z,62.43
2019-04-21T04:57:57.223Z,62.29
2019-04-21T05:02:48.918Z,62.36
2019-04-21T05:05:19.361Z,61.73
2019-04-21T05:07:52.260Z,61.52
2019-04-21T05:10:29.401Z,61.49
2019-04-21T05:12:51.923Z,61.23
2019-04-21T05:15:25.560Z,60.85
2019-04-21T05:17:57.702Z,61.02
2019-04-21T05:20:24.533Z,60.97
2019-04-21T05:22:58.233Z,60.76
2019-04-21T05:25:25.041Z,59.43
2019-04-21T05:27:52.574Z,58.30
2019-04-21T05:31:06.316Z,58.21
2019-04-21T05:33:53.821Z,57.69
2019-04-21T05:36:42.399Z,56.82
2019-04-21T05:39:14.603Z,57.15
2019-04-21T05:41:42.899Z,58.54
2019-04-21T05:44:35.561Z,58.56
2019-04-21T05:47:15.847Z,56.94
2019-04-21T05:49:45.577Z,56.44
2019-04-21T05:52:19.639Z,54.43
2019-04-21T05:54:57.327Z,55.15
2019-04-21T05:57:31.852Z,54.95
2019-04-21T06:00:00.943Z,54.72
2019-04-21T06:02:30.708Z,54.60
2019-04-21T06:07:34.818Z,54.15
2019-04-21T06:10:07.198Z,53.92
2019-04-21T06:12:46.649Z,52.79
2019-04-21T06:15:15.268Z,53.16
2019-04-21T06:17:50.879Z,53.93
2019-04-21T06:20:20.645Z,52.85
2019-04-21T06:22:51.995Z,53.21
2019-04-21T06:27:57.463Z,51.70
2019-04-21T06:30:35.979Z,51.48
2019-04-21T06:33:00.006Z,52.40
2019-04-21T06:38:58.169Z,50.86
2019-04-21T06:41:21.333Z,51.44
2019-04-21T06:43:59.827Z,50.61
2019-04-21T06:46:30.849Z,51.22
2019-04-21T06:49:00.295Z,51.06
2019-04-21T06:54:03.548Z,49.57
2019-04-21T06:56:36.547Z,47.65
2019-04-21T06:59:05.977Z,48.68
2019-04-21T07:01:48.080Z,46.71
2019-04-21T07:04:18.504Z,46.18
2019-04-21T07:11:44.982Z,44.57
2019-04-21T07:19:30.657Z,44.69
2019-04-21T07:21:59.229Z,43.44
2019-04-21T07:24:31.521Z,44.54
2019-04-21T07:27:06.824Z,43.36
2019-04-21T07:29:34.622Z,43.09
2019-04-21T07:32:04.560Z,42.78
2019-04-21T07:34:39.719Z,39.94
2019-04-21T07:37:05.922Z,40.54
2019-04-21T07:39:40.628Z,38.51
2019-04-21T07:42:09.950Z,37.68
2019-04-21T07:44:42.572Z,38.13
2019-04-21T07:47:23.419Z,35.55
2019-04-21T07:52:39.546Z,34.98
2019-04-21T07:57:39.736Z,34.90
2019-04-21T08:00:29.336Z,35.27
2019-04-21T08:02:51.139Z,34.88
2019-04-21T08:05:37.584Z,33.74
2019-04-21T08:10:28.536Z,33.98
2019-04-21T08:12:55.628Z,34.07
2019-04-21T08:15:39.947Z,33.36
2019-04-21T08:18:07.467Z,34.19
2019-04-21T08:20:38.724Z,33.74
2019-04-21T08:23:13.063Z,33.80
2019-04-21T08:25:46.533Z,34.63
2019-04-21T08:28:12.200Z,33.56
2019-04-21T08:30:44.362Z,33.86
2019-04-21T08:33:26.533Z,34.62
2019-04-21T08:38:20.909Z,33.83
2019-04-21T08:40:58.998Z,33.18
2019-04-21T08:43:37.023Z,33.90
2019-04-21T08:46:01.574Z,33.71
2019-04-21T08:48:29.302Z,33.76
2019-04-21T08:51:18.105Z,34.66
2019-04-21T08:53:41.557Z,33.45
2019-04-21T08:56:33.930Z,32.64
2019-04-21T08:59:31.253Z,33.28
2019-04-21T09:02:06.318Z,32.43
2019-04-21T09:04:41.179Z,33.84
2019-04-21T09:07:21.329Z,33.82
2019-04-21T09:09:47.522Z,33.19
2019-04-21T09:12:16.093Z,32.83
2019-04-21T09:14:52.747Z,32.45
2019-04-21T09:17:16.374Z,31.38
2019-04-21T09:19:56.456Z,30.88
2019-04-21T09:22:24.409Z,30.60
2019-04-21T09:25:00.110Z,30.65
2019-04-21T09:27:26.964Z,29.69
2019-04-21T09:29:52.342Z,31.00
2019-04-21T09:32:21.423Z,27.93
2019-04-21T09:34:50.674Z,28.23
2019-04-21T09:37:33.054Z,25.49
2019-04-21T09:39:55.917Z,25.07
2019-04-21T09:42:33.246Z,25.88
2019-04-21T09:45:00.586Z,26.40
2019-04-21T09:47:39.679Z,26.80
2019-04-21T09:50:03.518Z,27.98
2019-04-21T09:52:41.854Z,27.52
2019-04-21T09:55:13.389Z,26.57
2019-04-21T09:57:47.494Z,27.54
2019-04-21T10:00:15.107Z,26.15
2019-04-21T10:02:53.508Z,25.36
2019-04-21T10:05:16.949Z,27.99
2019-04-21T10:07:48.838Z,26.33
2019-04-21T10:10:19.873Z,25.49
2019-04-21T10:12:50.338Z,23.89
2019-04-21T10:15:23.623Z,24.98
2019-04-21T10:17:56.455Z,26.06
2019-04-21T10:20:28.497Z,23.99
2019-04-21T10:22:59.607Z,24.44
2019-04-21T10:25:30.703Z,24.91
2019-04-21T10:28:01.352Z,25.31
2019-04-21T10:30:33.006Z,23.60
2019-04-21T10:33:04.037Z,22.56
2019-04-21T10:35:35.262Z,24.07
2019-04-21T10:38:17.019Z,24.43
2019-04-21T10:40:39.170Z,22.95
2019-04-21T10:43:12.036Z,24.02
2019-04-21T10:45:43.150Z,25.17
2019-04-21T10:48:14.737Z,24.47
2019-04-21T10:50:47.286Z,23.13
2019-04-21T10:53:24.843Z,26.09
2019-04-21T10:56:09.771Z,25.08
2019-04-21T10:58:34.060Z,25.14
2019-04-21T11:01:10.605Z,24.65
2019-04-21T11:03:51.112Z,24.38
2019-04-21T11:06:21.764Z,24.32
2019-04-21T11:08:55.534Z,25.64
2019-04-21T11:11:25.912Z,26.24
2019-04-21T11:13:56.876Z,28.45
2019-04-21T11:16:29.049Z,27.67
2019-04-21T11:19:00.010Z,26.00
2019-04-21T11:21:31.138Z,24.47
2019-04-21T11:24:02.181Z,24.68
2019-04-21T11:26:33.795Z,26.60
2019-04-21T11:29:05.190Z,26.23
2019-04-21T11:31:36.908Z,26.74
2019-04-21T11:34:07.393Z,25.54
2019-04-21T11:36:37.916Z,24.93
2019-04-21T11:39:37.575Z,24.24
2019-04-21T11:42:05.935Z,25.17
2019-04-21T11:44:37.334Z,24.97
2019-04-21T11:47:10.506Z,26.05
2019-04-21T11:49:41.196Z,19.45
2019-04-21T11:52:13.335Z,23.49
2019-04-21T11:54:44.654Z,24.19
2019-04-21T11:57:23.961Z,26.16
2019-04-21T11:59:47.992Z,21.88
2019-04-21T12:02:19.420Z,24.73
2019-04-21T12:04:49.916Z,24.06
2019-04-21T12:07:20.548Z,22.70
2019-04-21T12:09:51.339Z,22.84
2019-04-21T12:12:21.782Z,23.65
2019-04-21T12:14:52.445Z,24.83
2019-04-21T12:17:23.720Z,25.45
2019-04-21T12:19:54.747Z,24.97
2019-04-21T12:22:28.887Z,23.82
2019-04-21T12:24:57.832Z,24.43
2019-04-21T12:27:29.833Z,24.09
2019-04-21T12:30:01.935Z,23.94
2019-04-21T12:32:48.578Z,23.25
2019-04-21T12:35:19.715Z,23.72
2019-04-21T12:37:51.057Z,22.92
2019-04-21T12:40:21.667Z,23.66
2019-04-21T12:42:52.504Z,23.39
2019-04-21T12:45:24.075Z,24.92
2019-04-21T12:47:55.752Z,23.89
2019-04-21T12:50:27.788Z,26.33
2019-04-21T12:52:58.193Z,25.02
2019-04-21T12:55:31.587Z,26.26
2019-04-21T12:58:01.428Z,24.06
2019-04-21T13:00:33.276Z,25.09
2019-04-21T13:03:05.714Z,25.26
2019-04-21T13:05:37.807Z,26.04
2019-04-21T13:08:09.194Z,26.04
2019-04-21T13:10:40.226Z,24.71
2019-04-21T13:13:12.133Z,25.72
2019-04-21T13:15:43.331Z,27.71
2019-04-21T13:18:14.334Z,24.85
2019-04-21T13:20:46.373Z,27.60
2019-04-21T13:23:17.106Z,25.26
2019-04-21T13:25:47.908Z,26.17
2019-04-21T13:28:19.042Z,26.03
2019-04-21T13:30:50.634Z,25.83
2019-04-21T13:33:22.864Z,26.22
2019-04-21T13:35:55.028Z,25.84
2019-04-21T13:38:33.005Z,25.69
2019-04-21T13:41:22.687Z,26.18
2019-04-21T13:43:41.167Z,26.09
2019-04-21T13:46:12.192Z,23.31
2019-04-21T13:48:44.426Z,25.61
2019-04-21T13:51:15.477Z,25.71
2019-04-21T13:53:46.019Z,25.41
2019-04-21T13:56:16.489Z,24.87
2019-04-21T13:58:48.286Z,23.35
2019-04-21T14:01:19.528Z,23.90
2019-04-21T14:03:51.394Z,25.82
2019-04-21T14:06:22.576Z,24.86
2019-04-21T14:08:53.022Z,24.02
2019-04-21T14:11:23.393Z,23.87
2019-04-21T14:13:54.465Z,23.54
2019-04-21T14:16:26.638Z,25.23
2019-04-21T14:18:57.225Z,24.33
2019-04-21T14:21:27.714Z,23.84
2019-04-21T14:23:59.453Z,22.96
2019-04-21T14:26:32.056Z,23.57
2019-04-21T14:29:03.589Z,23.79
2019-04-21T14:31:34.682Z,24.41
2019-04-21T14:34:05.958Z,24.10
2019-04-21T14:36:37.118Z,23.01
2019-04-21T14:39:12.550Z,23.40
2019-04-21T14:41:44.170Z,22.30
2019-04-21T14:44:15.249Z,23.16
2019-04-21T14:46:57.451Z,23.99
2019-04-21T14:49:35.264Z,25.01
2019-04-21T14:52:19.102Z,26.52
2019-04-21T14:55:00.768Z,23.71
2019-04-21T14:57:31.642Z,25.34
2019-04-21T15:00:03.023Z,24.23
2019-04-21T15:02:33.969Z,21.85
2019-04-21T15:05:04.674Z,23.76
2019-04-21T15:07:35.601Z,23.31
2019-04-21T15:10:13.297Z,23.69
2019-04-21T15:12:39.372Z,22.88
2019-04-21T15:15:09.921Z,21.49
2019-04-21T15:17:41.925Z,21.37
2019-04-21T15:20:15.844Z,21.77
2019-04-21T15:22:46.235Z,21.94
2019-04-21T15:25:18.377Z,19.99
2019-04-21T15:27:48.843Z,20.59
2019-04-21T15:30:20.647Z,19.28
2019-04-21T15:32:51.051Z,17.64
2019-04-21T15:35:21.487Z,17.43
2019-04-21T15:37:53.645Z,17.91
2019-04-21T15:40:35.256Z,18.24
2019-04-21T15:42:56.811Z,17.31
2019-04-21T15:45:28.427Z,16.92
2019-04-21T15:48:00.161Z,17.61
2019-04-21T15:50:30.523Z,17.08
2019-04-21T15:53:05.481Z,17.67
2019-04-21T15:56:04.646Z,18.03
2019-04-21T15:58:50.576Z,17.92
2019-04-21T16:01:42.885Z,18.71
2019-04-21T16:04:14.620Z,17.91
2019-04-21T16:06:45.693Z,17.54
2019-04-21T16:09:20.980Z,18.47
2019-04-21T16:11:49.699Z,19.65
2019-04-21T16:14:20.723Z,18.36
2019-04-21T16:16:51.722Z,19.01
2019-04-21T16:19:23.020Z,17.50
2019-04-21T16:21:54.414Z,19.10
2019-04-21T16:24:25.373Z,18.51
2019-04-21T16:26:56.527Z,18.31
2019-04-21T16:29:27.288Z,18.97
2019-04-21T16:31:59.524Z,19.32
2019-04-21T16:34:42.749Z,19.71
2019-04-21T16:37:03.585Z,20.29
2019-04-21T16:39:35.478Z,20.52
2019-04-21T16:42:08.357Z,21.07
2019-04-21T16:44:38.898Z,20.94
2019-04-21T16:47:09.707Z,20.45
2019-04-21T16:49:40.206Z,20.31
2019-04-21T16:52:14.519Z,21.18
2019-04-21T16:54:47.697Z,21.37
2019-04-21T16:57:35.640Z,21.78
2019-04-21T17:00:11.109Z,20.01
2019-04-21T17:02:42.777Z,19.72
2019-04-21T17:05:14.387Z,19.36
2019-04-21T17:07:45.096Z,19.36
2019-04-21T17:10:16.960Z,20.44
2019-04-21T17:12:48.016Z,21.02
2019-04-21T17:15:32.411Z,22.08
2019-04-21T17:18:07.584Z,22.38
2019-04-21T17:20:34.155Z,22.04
2019-04-21T17:22:55.679Z,22.20
2019-04-21T17:25:27.891Z,23.10
2019-04-21T17:27:58.810Z,23.36
2019-04-21T17:30:30.532Z,24.02
2019-04-21T17:33:01.635Z,24.67
2019-04-21T17:35:33.217Z,25.40
2019-04-21T17:38:04.029Z,25.23
2019-04-21T17:40:36.240Z,26.73
2019-04-21T17:43:10.742Z,26.55
2019-04-21T17:45:39.531Z,27.30
2019-04-21T17:48:13.888Z,27.54
2019-04-21T17:50:49.686Z,27.82
2019-04-21T17:53:30.300Z,28.21
2019-04-21T17:56:18.777Z,29.38
2019-04-21T17:58:52.652Z,29.97
2019-04-21T18:01:26.316Z,30.20
2019-04-21T18:06:36.684Z,30.77
2019-04-21T18:09:15.534Z,31.13
2019-04-21T18:11:46.232Z,31.25
2019-04-21T18:13:55.563Z,30.08
2019-04-21T18:16:35.846Z,30.89
2019-04-21T18:18:59.171Z,28.22
2019-04-21T18:21:38.904Z,27.73
2019-04-21T18:24:15.611Z,27.01
2019-04-21T18:26:53.098Z,27.10
2019-04-21T18:29:16.345Z,27.65
2019-04-21T18:31:50.182Z,27.45
2019-04-21T18:35:01.525Z,28.51
2019-04-21T18:37:49.336Z,27.75
2019-04-21T18:40:26.985Z,28.20
2019-04-21T18:43:23.915Z,28.65
2019-04-21T18:46:22.412Z,28.81
2019-04-21T18:48:59.172Z,30.29
2019-04-21T18:51:57.172Z,31.95
2019-04-21T18:54:41.434Z,32.67
2019-04-21T18:57:07.679Z,33.15
2019-04-21T18:59:34.632Z,32.99
2019-04-21T19:02:06.395Z,33.75
2019-04-21T19:04:36.841Z,33.95
2019-04-21T19:07:19.993Z,33.96
2019-04-21T19:12:47.347Z,34.56
2019-04-21T19:14:58.157Z,34.51
2019-04-21T19:22:38.740Z,36.16
2019-04-21T19:25:26.901Z,36.65
2019-04-21T19:27:45.160Z,36.61
2019-04-21T19:30:22.134Z,36.78
2019-04-21T19:32:45.700Z,36.50
2019-04-21T19:35:05.225Z,36.73
2019-04-21T19:37:44.029Z,36.97
2019-04-21T19:40:27.578Z,37.00
2019-04-21T19:42:53.292Z,37.05
2019-04-21T19:45:27.924Z,36.85
2019-04-21T19:48:08.136Z,36.95
2019-04-21T19:50:42.438Z,36.67
2019-04-21T19:52:59.731Z,37.14
2019-04-21T19:55:22.264Z,37.07
2019-04-21T19:57:53.092Z,37.42
2019-04-21T20:00:24.462Z,37.31
2019-04-21T20:02:56.617Z,37.49
2019-04-21T20:05:38.420Z,37.94
2019-04-21T20:08:17.374Z,38.41
2019-04-21T20:10:48.551Z,38.09
2019-04-21T20:13:36.418Z,38.28
2019-04-21T20:15:57.022Z,37.91
2019-04-21T20:18:22.270Z,38.16
2019-04-21T20:20:43.737Z,38.21
2019-04-21T20:23:22.150Z,38.15
2019-04-21T20:25:53.128Z,37.96
2019-04-21T20:28:33.364Z,38.17
2019-04-21T20:31:14.700Z,38.15
2019-04-21T20:33:52.600Z,38.45
2019-04-21T20:36:21.126Z,37.59
2019-04-21T20:38:40.374Z,37.69
2019-04-21T20:41:18.302Z,38.22
2019-04-21T20:43:54.251Z,38.85
2019-04-21T20:46:28.270Z,39.69
2019-04-21T20:48:52.317Z,39.81
2019-04-21T20:51:31.060Z,39.49
2019-04-21T20:53:53.857Z,39.43
2019-04-21T20:56:29.018Z,38.73
2019-04-21T20:59:07.746Z,39.11
2019-04-21T21:01:39.351Z,38.70
2019-04-21T21:04:06.327Z,38.64
2019-04-21T21:06:40.686Z,38.90
2019-04-21T21:09:09.856Z,38.99
2019-04-21T21:12:04.106Z,39.26
2019-04-21T21:14:16.036Z,39.66
2019-04-21T21:17:01.318Z,39.70
2019-04-21T21:19:32.970Z,39.78
2019-04-21T21:21:55.446Z,39.69
2019-04-21T21:24:36.199Z,39.98
2019-04-21T21:26:59.373Z,40.58
2019-04-21T21:29:49.899Z,40.78
2019-04-21T21:32:25.834Z,41.14
2019-04-21T21:35:01.323Z,41.67
2019-04-21T21:37:38.093Z,41.83
2019-04-21T21:40:08.307Z,41.82
2019-04-21T21:42:23.121Z,41.52
2019-04-21T21:45:00.461Z,42.03
2019-04-21T21:47:37.587Z,41.45
2019-04-21T21:50:04.722Z,41.56
2019-04-21T21:52:40.496Z,41.90
2019-04-21T21:54:58.848Z,42.02
2019-04-21T21:57:32.904Z,42.02
2019-04-21T22:00:06.777Z,42.47
2019-04-21T22:02:42.108Z,42.83
2019-04-21T22:05:13.261Z,43.08
2019-04-21T22:07:40.558Z,43.45
2019-04-21T22:10:12.463Z,43.56
2019-04-21T22:12:50.459Z,44.18
2019-04-21T22:15:19.703Z,44.44
2019-04-21T22:18:12.104Z,44.87
2019-04-21T22:20:37.317Z,45.05
2019-04-21T22:23:01.499Z,45.21
2019-04-21T22:25:29.964Z,45.23
2019-04-21T22:27:58.119Z,45.43
2019-04-21T22:30:34.927Z,45.32
2019-04-21T22:33:08.034Z,45.87
2019-04-21T22:35:42.021Z,45.93
2019-04-21T22:38:20.905Z,46.40
2019-04-21T22:40:51.936Z,47.27
2019-04-21T22:43:21.729Z,48.09
2019-04-21T22:45:45.224Z,48.52
2019-04-21T22:48:20.987Z,48.38
2019-04-21T22:50:48.887Z,48.52
2019-04-21T22:53:19.773Z,48.90
2019-04-21T22:56:00.405Z,49.19
2019-04-21T22:58:29.375Z,48.99
2019-04-21T23:00:59.872Z,49.33
2019-04-21T23:03:30.294Z,49.23
2019-04-21T23:06:07.576Z,49.46
2019-04-21T23:08:36.935Z,49.36
2019-04-21T23:11:10.025Z,49.45
2019-04-21T23:13:38.643Z,49.64
2019-04-21T23:16:09.890Z,49.26
2019-04-21T23:18:55.425Z,49.45
2019-04-21T23:21:24.834Z,49.67
2019-04-21T23:24:04.505Z,49.50
2019-04-21T23:26:32.730Z,49.22
2019-04-21T23:29:12.641Z,48.65
2019-04-21T23:31:40.703Z,48.47
2019-04-21T23:33:55.006Z,48.63
2019-04-21T23:36:29.642Z,48.68
2019-04-21T23:38:58.540Z,48.77
2019-04-21T23:41:36.178Z,48.75
2019-04-21T23:44:06.173Z,48.50
2019-04-21T23:46:36.655Z,48.27
2019-04-21T23:49:19.784Z,47.92
2019-04-21T23:51:45.835Z,47.62
2019-04-21T23:54:11.403Z,47.78
2019-04-21T23:56:45.570Z,47.42
2019-04-21T23:59:16.081Z,47.93
